sensor_id;sensor_type;location;lat;lon;timestamp;pressure;altitude;pressure_sealevel;temperature;humidity
65546;BME280;52177;55.968;37.498;2023-05-03T00:00:04;99865.72;;;10.35;40.37
65546;BME280;52177;55.968;37.498;2023-05-03T00:00:41;99860.03;;;10.39;40.32
65546;BME280;52177;55.968;37.498;2023-05-03T00:01:11;99858.56;;;10.36;40.42
65546;BME280;52177;55.968;37.498;2023-05-03T00:01:42;99870.22;;;10.35;40.32
65546;BME280;52177;55.968;37.498;2023-05-03T00:02:13;99871.06;;;10.35;40.48
65546;BME280;52177;55.968;37.498;2023-05-03T00:02:43;99866.69;;;10.34;40.37
65546;BME280;52177;55.968;37.498;2023-05-03T00:03:14;99856.91;;;10.35;40.44
65546;BME280;52177;55.968;37.498;2023-05-03T00:03:44;99854.56;;;10.32;40.63
65546;BME280;52177;55.968;37.498;2023-05-03T00:04:15;99857.56;;;10.29;40.71
65546;BME280;52177;55.968;37.498;2023-05-03T00:04:51;99859.41;;;10.28;40.51
65546;BME280;52177;55.968;37.498;2023-05-03T00:05:24;99855.91;;;10.28;40.59
65546;BME280;52177;55.968;37.498;2023-05-03T00:05:55;99863.88;;;10.28;40.72
65546;BME280;52177;55.968;37.498;2023-05-03T00:06:25;99851.22;;;10.30;40.63
65546;BME280;52177;55.968;37.498;2023-05-03T00:06:56;99860.91;;;10.31;40.39
65546;BME280;52177;55.968;37.498;2023-05-03T00:07:27;99857.22;;;10.32;40.39
65546;BME280;52177;55.968;37.498;2023-05-03T00:07:57;99852.91;;;10.31;40.54
65546;BME280;52177;55.968;37.498;2023-05-03T00:08:28;99865.56;;;10.29;40.87
65546;BME280;52177;55.968;37.498;2023-05-03T00:08:58;99863.03;;;10.27;40.66
65546;BME280;52177;55.968;37.498;2023-05-03T00:09:29;99865.88;;;10.26;40.80
65546;BME280;52177;55.968;37.498;2023-05-03T00:09:59;99855.91;;;10.28;40.64
65546;BME280;52177;55.968;37.498;2023-05-03T00:10:30;99857.56;;;10.29;40.66
65546;BME280;52177;55.968;37.498;2023-05-03T00:11:00;99861.06;;;10.29;40.71
65546;BME280;52177;55.968;37.498;2023-05-03T00:11:31;99860.06;;;10.30;40.56
65546;BME280;52177;55.968;37.498;2023-05-03T00:12:03;99852.91;;;10.31;40.55
65546;BME280;52177;55.968;37.498;2023-05-03T00:12:37;99855.03;;;10.27;40.93
65546;BME280;52177;55.968;37.498;2023-05-03T00:13:07;99853.22;;;10.28;40.69
65546;BME280;52177;55.968;37.498;2023-05-03T00:13:38;99862.06;;;10.28;40.61
65546;BME280;52177;55.968;37.498;2023-05-03T00:14:08;99860.38;;;10.27;40.58
65546;BME280;52177;55.968;37.498;2023-05-03T00:14:39;99865.56;;;10.29;40.67
65546;BME280;52177;55.968;37.498;2023-05-03T00:15:09;99856.75;;;10.28;40.64
65546;BME280;52177;55.968;37.498;2023-05-03T00:15:40;99859.22;;;10.30;40.63
65546;BME280;52177;55.968;37.498;2023-05-03T00:16:10;99861.06;;;10.29;40.70
65546;BME280;52177;55.968;37.498;2023-05-03T00:16:40;99867.22;;;10.30;40.62
65546;BME280;52177;55.968;37.498;2023-05-03T00:17:11;99859.41;;;10.28;40.64
65546;BME280;52177;55.968;37.498;2023-05-03T00:17:42;99870.19;;;10.27;40.65
65546;BME280;52177;55.968;37.498;2023-05-03T00:18:12;99867.53;;;10.27;40.68
65546;BME280;52177;55.968;37.498;2023-05-03T00:18:42;99862.19;;;10.27;40.77
65546;BME280;52177;55.968;37.498;2023-05-03T00:19:13;99862.19;;;10.27;40.76
65546;BME280;52177;55.968;37.498;2023-05-03T00:19:43;99857.56;;;10.29;40.86
65546;BME280;52177;55.968;37.498;2023-05-03T00:20:14;99853.88;;;10.30;40.74
65546;BME280;52177;55.968;37.498;2023-05-03T00:20:44;99851.56;;;10.27;40.65
65546;BME280;52177;55.968;37.498;2023-05-03T00:21:15;99850.72;;;10.26;40.58
65546;BME280;52177;55.968;37.498;2023-05-03T00:21:45;99862.38;;;10.25;40.78
65546;BME280;52177;55.968;37.498;2023-05-03T00:22:16;99856.88;;;10.27;40.77
65546;BME280;52177;55.968;37.498;2023-05-03T00:22:46;99849.91;;;10.26;40.80
65546;BME280;52177;55.968;37.498;2023-05-03T00:23:16;99852.56;;;10.26;40.90
65546;BME280;52177;55.968;37.498;2023-05-03T00:23:47;99857.56;;;10.29;40.85
65546;BME280;52177;55.968;37.498;2023-05-03T00:24:17;99849.59;;;10.29;40.82
65546;BME280;52177;55.968;37.498;2023-05-03T00:24:48;99849.59;;;10.29;40.95
65546;BME280;52177;55.968;37.498;2023-05-03T00:25:20;99853.22;;;10.28;40.82
65546;BME280;52177;55.968;37.498;2023-05-03T00:25:55;99850.56;;;10.28;40.92
65546;BME280;52177;55.968;37.498;2023-05-03T00:26:26;99846.22;;;10.27;41.06
65546;BME280;52177;55.968;37.498;2023-05-03T00:26:57;99846.38;;;10.25;41.10
65546;BME280;52177;55.968;37.498;2023-05-03T00:27:27;99836.75;;;10.24;41.34
65546;BME280;52177;55.968;37.498;2023-05-03T00:27:58;99842.06;;;10.24;41.19
65546;BME280;52177;55.968;37.498;2023-05-03T00:28:28;99846.56;;;10.24;41.07
65546;BME280;52177;55.968;37.498;2023-05-03T00:28:58;99838.56;;;10.24;41.02
65546;BME280;52177;55.968;37.498;2023-05-03T00:29:30;99843.91;;;10.24;41.06
65546;BME280;52177;55.968;37.498;2023-05-03T00:30:00;99841.91;;;10.26;41.05
65546;BME280;52177;55.968;37.498;2023-05-03T00:30:30;99848.41;;;10.23;41.14
65546;BME280;52177;55.968;37.498;2023-05-03T00:31:08;99844.06;;;10.22;41.03
65546;BME280;52177;55.968;37.498;2023-05-03T00:31:39;99839.56;;;10.23;41.01
65546;BME280;52177;55.968;37.498;2023-05-03T00:32:09;99836.91;;;10.23;40.90
65546;BME280;52177;55.968;37.498;2023-05-03T00:32:40;99838.91;;;10.21;41.04
65546;BME280;52177;55.968;37.498;2023-05-03T00:33:10;99843.25;;;10.22;41.01
65546;BME280;52177;55.968;37.498;2023-05-03T00:33:40;99848.22;;;10.25;40.97
65546;BME280;52177;55.968;37.498;2023-05-03T00:34:11;99851.06;;;10.23;40.92
65546;BME280;52177;55.968;37.498;2023-05-03T00:34:41;99840.56;;;10.22;41.14
65546;BME280;52177;55.968;37.498;2023-05-03T00:35:11;99838.06;;;10.20;41.13
65546;BME280;52177;55.968;37.498;2023-05-03T00:35:42;99837.41;;;10.18;41.27
65546;BME280;52177;55.968;37.498;2023-05-03T00:36:13;99839.44;;;10.16;41.08
65546;BME280;52177;55.968;37.498;2023-05-03T00:36:44;99848.41;;;10.15;41.22
65546;BME280;52177;55.968;37.498;2023-05-03T00:37:14;99851.25;;;10.13;41.36
65546;BME280;52177;55.968;37.498;2023-05-03T00:37:45;99844.25;;;10.12;41.24
65546;BME280;52177;55.968;37.498;2023-05-03T00:38:15;99838.28;;;10.10;41.55
65546;BME280;52177;55.968;37.498;2023-05-03T00:38:46;99837.59;;;10.08;41.34
65546;BME280;52177;55.968;37.498;2023-05-03T00:39:16;99846.41;;;10.09;41.32
65546;BME280;52177;55.968;37.498;2023-05-03T00:39:46;99837.91;;;10.13;41.05
65546;BME280;52177;55.968;37.498;2023-05-03T00:40:17;99832.59;;;10.13;41.05
65546;BME280;52177;55.968;37.498;2023-05-03T00:40:53;99830.94;;;10.12;41.13
65546;BME280;52177;55.968;37.498;2023-05-03T00:41:25;99836.28;;;10.12;41.07
65546;BME280;52177;55.968;37.498;2023-05-03T00:41:57;99832.44;;;10.15;41.04
65546;BME280;52177;55.968;37.498;2023-05-03T00:42:27;99833.25;;;10.15;41.21
65546;BME280;52177;55.968;37.498;2023-05-03T00:42:58;99830.94;;;10.12;41.14
65546;BME280;52177;55.968;37.498;2023-05-03T00:43:28;99836.44;;;10.11;41.10
65546;BME280;52177;55.968;37.498;2023-05-03T00:43:58;99837.44;;;10.10;41.22
65546;BME280;52177;55.968;37.498;2023-05-03T00:44:29;99829.63;;;10.08;41.41
65546;BME280;52177;55.968;37.498;2023-05-03T00:44:59;99833.09;;;10.09;41.32
65546;BME280;52177;55.968;37.498;2023-05-03T00:45:32;99826.94;;;10.08;41.41
65546;BME280;52177;55.968;37.498;2023-05-03T00:46:04;99828.94;;;10.06;41.46
65546;BME280;52177;55.968;37.498;2023-05-03T00:46:35;99820.97;;;10.06;41.36
65546;BME280;52177;55.968;37.498;2023-05-03T00:47:07;99816.50;;;10.07;41.34
65546;BME280;52177;55.968;37.498;2023-05-03T00:47:38;99817.31;;;10.07;41.27
65546;BME280;52177;55.968;37.498;2023-05-03T00:48:08;99818.97;;;10.08;41.29
65546;BME280;52177;55.968;37.498;2023-05-03T00:48:39;99831.44;;;10.08;41.33
65546;BME280;52177;55.968;37.498;2023-05-03T00:49:10;99822.63;;;10.07;41.32
65546;BME280;52177;55.968;37.498;2023-05-03T00:49:40;99819.97;;;10.07;41.43
65546;BME280;52177;55.968;37.498;2023-05-03T00:50:11;99816.50;;;10.07;41.49
65546;BME280;52177;55.968;37.498;2023-05-03T00:50:42;99815.81;;;10.05;41.81
65546;BME280;52177;55.968;37.498;2023-05-03T00:51:13;99822.94;;;10.04;41.75
65546;BME280;52177;55.968;37.498;2023-05-03T00:51:44;99823.97;;;10.03;41.47
65546;BME280;52177;55.968;37.498;2023-05-03T00:52:15;99821.16;;;10.05;41.44
65546;BME280;52177;55.968;37.498;2023-05-03T00:52:45;99820.97;;;10.06;41.43
65546;BME280;52177;55.968;37.498;2023-05-03T00:53:16;99823.63;;;10.06;41.51
65546;BME280;52177;55.968;37.498;2023-05-03T00:53:46;99820.97;;;10.06;41.56
65546;BME280;52177;55.968;37.498;2023-05-03T00:54:17;99825.63;;;10.04;41.59
65546;BME280;52177;55.968;37.498;2023-05-03T00:54:47;99804.50;;;10.03;41.33
65546;BME280;52177;55.968;37.498;2023-05-03T00:55:18;99804.66;;;10.01;41.55
65546;BME280;52177;55.968;37.498;2023-05-03T00:55:51;99808.34;;;10.00;41.49
65546;BME280;52177;55.968;37.498;2023-05-03T00:56:22;99803.84;;;10.01;41.50
65546;BME280;52177;55.968;37.498;2023-05-03T00:56:54;99812.31;;;10.04;41.30
65546;BME280;52177;55.968;37.498;2023-05-03T00:57:27;99804.50;;;10.03;41.52
65546;BME280;52177;55.968;37.498;2023-05-03T00:57:58;99798.16;;;10.04;41.27
65546;BME280;52177;55.968;37.498;2023-05-03T00:58:29;99802.81;;;10.02;41.39
65546;BME280;52177;55.968;37.498;2023-05-03T00:59:02;99804.50;;;10.03;41.41
65546;BME280;52177;55.968;37.498;2023-05-03T00:59:33;99802.00;;;10.01;41.29
65546;BME280;52177;55.968;37.498;2023-05-03T01:00:03;99803.69;;;10.02;41.38
65546;BME280;52177;55.968;37.498;2023-05-03T01:00:34;99802.81;;;10.02;41.29
65546;BME280;52177;55.968;37.498;2023-05-03T01:01:05;99795.84;;;10.01;41.17
65546;BME280;52177;55.968;37.498;2023-05-03T01:01:39;99797.69;;;10.00;41.31
65546;BME280;52177;55.968;37.498;2023-05-03T01:02:09;99793.34;;;9.99;41.40
65546;BME280;52177;55.968;37.498;2023-05-03T01:02:40;99793.34;;;9.99;41.56
65546;BME280;52177;55.968;37.498;2023-05-03T01:03:10;99795.84;;;10.01;41.34
65546;BME280;52177;55.968;37.498;2023-05-03T01:03:41;99794.84;;;10.02;41.40
65546;BME280;52177;55.968;37.498;2023-05-03T01:04:12;99795.84;;;10.01;41.39
65546;BME280;52177;55.968;37.498;2023-05-03T01:04:42;99792.66;;;10.05;41.21
65546;BME280;52177;55.968;37.498;2023-05-03T01:05:13;99788.16;;;10.06;41.24
65546;BME280;52177;55.968;37.498;2023-05-03T01:05:55;99792.31;;;10.08;41.11
65546;BME280;52177;55.968;37.498;2023-05-03T01:08:00;99794.81;;;10.10;41.36
65546;BME280;52177;55.968;37.498;2023-05-03T01:08:30;99791.50;;;10.08;41.29
65546;BME280;52177;55.968;37.498;2023-05-03T01:09:19;99788.84;;;10.08;41.27
65546;BME280;52177;55.968;37.498;2023-05-03T01:11:07;99808.00;;;10.03;41.51
65546;BME280;52177;55.968;37.498;2023-05-03T01:11:52;99806.97;;;10.04;41.40
65546;BME280;52177;55.968;37.498;2023-05-03T01:13:06;99793.66;;;10.04;41.54
65546;BME280;52177;55.968;37.498;2023-05-03T01:13:43;99800.66;;;10.05;41.55
65546;BME280;52177;55.968;37.498;2023-05-03T01:14:45;99790.84;;;10.06;41.49
65546;BME280;52177;55.968;37.498;2023-05-03T01:15:24;99805.16;;;10.05;41.30
65546;BME280;52177;55.968;37.498;2023-05-03T01:16:26;99795.34;;;10.05;41.49
65546;BME280;52177;55.968;37.498;2023-05-03T01:17:07;99804.16;;;10.06;41.45
65546;BME280;52177;55.968;37.498;2023-05-03T01:18:30;99798.97;;;10.04;41.50
65546;BME280;52177;55.968;37.498;2023-05-03T01:19:07;99797.19;;;10.05;41.33
65546;BME280;52177;55.968;37.498;2023-05-03T01:19:47;99802.81;;;10.10;41.15
65546;BME280;52177;55.968;37.498;2023-05-03T01:20:22;99798.97;;;10.12;41.00
65546;BME280;52177;55.968;37.498;2023-05-03T01:20:55;99792.00;;;10.11;41.20
65546;BME280;52177;55.968;37.498;2023-05-03T01:21:27;99788.66;;;10.09;41.30
65546;BME280;52177;55.968;37.498;2023-05-03T01:23:14;99790.84;;;10.06;41.48
65546;BME280;52177;55.968;37.498;2023-05-03T01:24:27;99793.66;;;10.04;41.73
65546;BME280;52177;55.968;37.498;2023-05-03T01:25:11;99793.03;;;10.02;41.61
65546;BME280;52177;55.968;37.498;2023-05-03T01:25:41;99791.34;;;10.01;41.66
65546;BME280;52177;55.968;37.498;2023-05-03T01:26:22;99788.34;;;10.04;41.39
65546;BME280;52177;55.968;37.498;2023-05-03T01:26:52;99786.03;;;10.01;41.86
65546;BME280;52177;55.968;37.498;2023-05-03T01:27:22;99781.03;;;9.98;41.77
65546;BME280;52177;55.968;37.498;2023-05-03T01:27:53;99787.19;;;9.99;41.68
65546;BME280;52177;55.968;37.498;2023-05-03T01:28:23;99784.53;;;9.99;41.66
65546;BME280;52177;55.968;37.498;2023-05-03T01:28:54;99785.19;;;10.01;41.58
65546;BME280;52177;55.968;37.498;2023-05-03T01:29:24;99783.34;;;10.01;41.56
65546;BME280;52177;55.968;37.498;2023-05-03T01:29:55;99782.38;;;10.02;41.62
65546;BME280;52177;55.968;37.498;2023-05-03T01:30:26;99780.69;;;10.01;41.63
65546;BME280;52177;55.968;37.498;2023-05-03T01:30:58;99784.19;;;10.02;41.53
65546;BME280;52177;55.968;37.498;2023-05-03T01:31:39;99785.03;;;10.02;41.84
65546;BME280;52177;55.968;37.498;2023-05-03T01:32:21;99785.03;;;10.02;41.52
65546;BME280;52177;55.968;37.498;2023-05-03T01:33:12;99777.03;;;10.02;41.74
65546;BME280;52177;55.968;37.498;2023-05-03T01:34:04;99782.38;;;10.02;41.68
65546;BME280;52177;55.968;37.498;2023-05-03T01:34:52;99776.19;;;10.02;41.84
65546;BME280;52177;55.968;37.498;2023-05-03T01:36:12;99778.84;;;10.02;41.63
65546;BME280;52177;55.968;37.498;2023-05-03T01:36:47;99770.53;;;10.05;41.64
65546;BME280;52177;55.968;37.498;2023-05-03T01:37:18;99782.03;;;10.05;41.54
65546;BME280;52177;55.968;37.498;2023-05-03T01:37:50;99775.00;;;10.04;41.63
65546;BME280;52177;55.968;37.498;2023-05-03T01:38:21;99781.34;;;10.03;41.75
65546;BME280;52177;55.968;37.498;2023-05-03T01:38:52;99781.34;;;10.03;41.63
65546;BME280;52177;55.968;37.498;2023-05-03T01:39:36;99784.84;;;10.04;41.73
65546;BME280;52177;55.968;37.498;2023-05-03T01:40:08;99769.69;;;10.04;41.50
65546;BME280;52177;55.968;37.498;2023-05-03T01:40:44;99770.69;;;10.03;41.70
65546;BME280;52177;55.968;37.498;2023-05-03T01:41:17;99771.72;;;10.02;41.68
65546;BME280;52177;55.968;37.498;2023-05-03T01:41:49;99770.69;;;10.03;41.62
65546;BME280;52177;55.968;37.498;2023-05-03T01:42:21;99777.88;;;10.03;41.66
65546;BME280;52177;55.968;37.498;2023-05-03T01:42:54;99785.66;;;10.04;41.57
65546;BME280;52177;55.968;37.498;2023-05-03T01:43:24;99775.88;;;10.05;41.72
65546;BME280;52177;55.968;37.498;2023-05-03T01:43:55;99777.53;;;10.06;41.79
65546;BME280;52177;55.968;37.498;2023-05-03T01:44:26;99765.03;;;10.06;41.79
65546;BME280;52177;55.968;37.498;2023-05-03T01:44:58;99771.84;;;10.09;41.68
65546;BME280;52177;55.968;37.498;2023-05-03T01:45:29;99765.88;;;10.07;41.89
65546;BME280;52177;55.968;37.498;2023-05-03T01:46:00;99764.19;;;10.06;41.87
65546;BME280;52177;55.968;37.498;2023-05-03T01:46:30;99757.88;;;10.07;41.80
65546;BME280;52177;55.968;37.498;2023-05-03T01:47:01;99758.72;;;10.07;41.76
65546;BME280;52177;55.968;37.498;2023-05-03T01:47:31;99756.72;;;10.09;41.55
65546;BME280;52177;55.968;37.498;2023-05-03T01:48:01;99760.84;;;10.12;41.54
65546;BME280;52177;55.968;37.498;2023-05-03T01:48:32;99762.50;;;10.13;41.48
65546;BME280;52177;55.968;37.498;2023-05-03T01:49:02;99766.84;;;10.14;41.40
65546;BME280;52177;55.968;37.498;2023-05-03T01:49:33;99758.00;;;10.13;41.52
65546;BME280;52177;55.968;37.498;2023-05-03T01:50:04;99763.53;;;10.12;41.49
65546;BME280;52177;55.968;37.498;2023-05-03T01:50:34;99760.03;;;10.11;41.62
65546;BME280;52177;55.968;37.498;2023-05-03T01:51:05;99768.03;;;10.11;41.72
65546;BME280;52177;55.968;37.498;2023-05-03T01:51:35;99768.84;;;10.12;41.55
65546;BME280;52177;55.968;37.498;2023-05-03T01:52:05;99761.03;;;10.10;41.64
65546;BME280;52177;55.968;37.498;2023-05-03T01:52:36;99768.84;;;10.12;41.60
65546;BME280;52177;55.968;37.498;2023-05-03T01:53:06;99771.69;;;10.10;41.64
65546;BME280;52177;55.968;37.498;2023-05-03T01:53:37;99765.16;;;10.13;41.55
65546;BME280;52177;55.968;37.498;2023-05-03T01:54:07;99765.16;;;10.13;41.72
65546;BME280;52177;55.968;37.498;2023-05-03T01:54:38;99763.16;;;10.15;41.53
65546;BME280;52177;55.968;37.498;2023-05-03T01:55:08;99754.34;;;10.14;41.50
65546;BME280;52177;55.968;37.498;2023-05-03T01:55:38;99765.00;;;10.14;41.72
65546;BME280;52177;55.968;37.498;2023-05-03T01:56:09;99761.69;;;10.12;41.60
65546;BME280;52177;55.968;37.498;2023-05-03T01:56:39;99767.00;;;10.12;41.67
65546;BME280;52177;55.968;37.498;2023-05-03T01:57:10;99763.34;;;10.13;41.53
65546;BME280;52177;55.968;37.498;2023-05-03T01:57:40;99763.16;;;10.15;41.62
65546;BME280;52177;55.968;37.498;2023-05-03T01:58:11;99762.69;;;10.11;41.91
65546;BME280;52177;55.968;37.498;2023-05-03T01:58:41;99769.84;;;10.11;41.81
65546;BME280;52177;55.968;37.498;2023-05-03T01:59:11;99763.69;;;10.10;41.68
65546;BME280;52177;55.968;37.498;2023-05-03T01:59:42;99768.66;;;10.13;41.70
65546;BME280;52177;55.968;37.498;2023-05-03T02:00:13;99767.69;;;10.14;41.58
65546;BME280;52177;55.968;37.498;2023-05-03T02:00:44;99759.69;;;10.14;41.54
65546;BME280;52177;55.968;37.498;2023-05-03T02:01:15;99761.53;;;10.14;41.38
65546;BME280;52177;55.968;37.498;2023-05-03T02:01:45;99758.84;;;10.14;41.72
65546;BME280;52177;55.968;37.498;2023-05-03T02:02:16;99760.03;;;10.11;41.84
65546;BME280;52177;55.968;37.498;2023-05-03T02:02:46;99758.53;;;10.09;41.65
65546;BME280;52177;55.968;37.498;2023-05-03T02:03:16;99760.56;;;10.07;41.76
65546;BME280;52177;55.968;37.498;2023-05-03T02:03:48;99768.19;;;10.10;41.72
65546;BME280;52177;55.968;37.498;2023-05-03T02:04:18;99761.84;;;10.11;41.54
65546;BME280;52177;55.968;37.498;2023-05-03T02:04:48;99765.53;;;10.10;41.53
65546;BME280;52177;55.968;37.498;2023-05-03T02:05:19;99766.50;;;10.09;41.50
65546;BME280;52177;55.968;37.498;2023-05-03T02:05:49;99766.34;;;10.10;41.61
65546;BME280;52177;55.968;37.498;2023-05-03T02:06:19;99763.69;;;10.10;41.54
65546;BME280;52177;55.968;37.498;2023-05-03T02:06:50;99765.53;;;10.10;41.54
65546;BME280;52177;55.968;37.498;2023-05-03T02:07:20;99757.69;;;10.08;41.69
65546;BME280;52177;55.968;37.498;2023-05-03T02:07:51;99762.34;;;10.06;41.69
65546;BME280;52177;55.968;37.498;2023-05-03T02:08:21;99764.03;;;10.07;41.70
65546;BME280;52177;55.968;37.498;2023-05-03T02:08:52;99762.03;;;10.09;41.49
65546;BME280;52177;55.968;37.498;2023-05-03T02:09:24;99758.34;;;10.10;41.60
65546;BME280;52177;55.968;37.498;2023-05-03T02:09:54;99769.00;;;10.10;41.64
65546;BME280;52177;55.968;37.498;2023-05-03T02:10:25;99763.84;;;10.09;41.64
65546;BME280;52177;55.968;37.498;2023-05-03T02:10:55;99766.34;;;10.10;41.68
65546;BME280;52177;55.968;37.498;2023-05-03T02:11:25;99761.03;;;10.10;41.63
65546;BME280;52177;55.968;37.498;2023-05-03T02:11:56;99761.03;;;10.10;41.76
65546;BME280;52177;55.968;37.498;2023-05-03T02:12:26;99759.38;;;10.09;41.86
65546;BME280;52177;55.968;37.498;2023-05-03T02:12:56;99764.69;;;10.09;41.54
65546;BME280;52177;55.968;37.498;2023-05-03T02:13:27;99764.88;;;10.08;41.47
65546;BME280;52177;55.968;37.498;2023-05-03T02:13:58;99756.88;;;10.08;41.58
65546;BME280;52177;55.968;37.498;2023-05-03T02:14:28;99753.38;;;10.07;41.68
65546;BME280;52177;55.968;37.498;2023-05-03T02:14:58;99759.69;;;10.06;41.81
65546;BME280;52177;55.968;37.498;2023-05-03T02:15:29;99750.88;;;10.06;41.80
65546;BME280;52177;55.968;37.498;2023-05-03T02:16:01;99749.69;;;10.08;41.93
65546;BME280;52177;55.968;37.498;2023-05-03T02:16:31;99752.56;;;10.07;42.06
65546;BME280;52177;55.968;37.498;2023-05-03T02:17:01;99759.53;;;10.08;41.97
65546;BME280;52177;55.968;37.498;2023-05-03T02:17:32;99756.06;;;10.07;41.89
65546;BME280;52177;55.968;37.498;2023-05-03T02:18:03;99754.22;;;10.08;41.97
65546;BME280;52177;55.968;37.498;2023-05-03T02:18:34;99747.88;;;10.09;41.85
65546;BME280;52177;55.968;37.498;2023-05-03T02:19:05;99745.19;;;10.09;41.82
65546;BME280;52177;55.968;37.498;2023-05-03T02:19:37;99745.41;;;10.07;41.70
65546;BME280;52177;55.968;37.498;2023-05-03T02:20:07;99746.22;;;10.08;41.80
65546;BME280;52177;55.968;37.498;2023-05-03T02:20:45;99742.72;;;10.07;41.79
65546;BME280;52177;55.968;37.498;2023-05-03T02:21:15;99749.69;;;10.08;41.82
65546;BME280;52177;55.968;37.498;2023-05-03T02:21:45;99751.53;;;10.08;41.90
65546;BME280;52177;55.968;37.498;2023-05-03T02:22:16;99755.69;;;10.10;41.87
65546;BME280;52177;55.968;37.498;2023-05-03T02:22:47;99744.22;;;10.10;41.71
65546;BME280;52177;55.968;37.498;2023-05-03T02:23:17;99747.69;;;10.10;41.70
65546;BME280;52177;55.968;37.498;2023-05-03T02:23:47;99754.88;;;10.10;41.68
65546;BME280;52177;55.968;37.498;2023-05-03T02:24:18;99742.22;;;10.12;41.58
65546;BME280;52177;55.968;37.498;2023-05-03T02:24:49;99741.56;;;10.10;41.73
65546;BME280;52177;55.968;37.498;2023-05-03T02:25:19;99749.69;;;10.08;41.83
65546;BME280;52177;55.968;37.498;2023-05-03T02:25:49;99758.72;;;10.07;41.60
65546;BME280;52177;55.968;37.498;2023-05-03T02:26:20;99754.22;;;10.08;41.62
65546;BME280;52177;55.968;37.498;2023-05-03T02:26:50;99746.88;;;10.10;41.65
65546;BME280;52177;55.968;37.498;2023-05-03T02:27:21;99746.06;;;10.09;41.70
65546;BME280;52177;55.968;37.498;2023-05-03T02:27:51;99739.56;;;10.12;41.76
65546;BME280;52177;55.968;37.498;2023-05-03T02:28:21;99743.19;;;10.11;41.65
65546;BME280;52177;55.968;37.498;2023-05-03T02:28:52;99752.88;;;10.12;41.64
65546;BME280;52177;55.968;37.498;2023-05-03T02:29:22;99748.53;;;10.11;41.73
65546;BME280;52177;55.968;37.498;2023-05-03T02:29:52;99755.69;;;10.10;41.74
65546;BME280;52177;55.968;37.498;2023-05-03T02:30:23;99751.38;;;10.09;41.82
65546;BME280;52177;55.968;37.498;2023-05-03T02:30:53;99755.84;;;10.09;41.93
65546;BME280;52177;55.968;37.498;2023-05-03T02:31:23;99749.38;;;10.11;41.93
65546;BME280;52177;55.968;37.498;2023-05-03T02:31:54;99755.03;;;10.08;41.74
65546;BME280;52177;55.968;37.498;2023-05-03T02:32:24;99747.22;;;10.07;41.97
65546;BME280;52177;55.968;37.498;2023-05-03T02:32:55;99760.19;;;10.10;41.94
65546;BME280;52177;55.968;37.498;2023-05-03T02:33:25;99746.06;;;10.09;41.88
65546;BME280;52177;55.968;37.498;2023-05-03T02:33:56;99758.34;;;10.10;41.83
65546;BME280;52177;55.968;37.498;2023-05-03T02:34:26;99751.19;;;10.11;41.81
65546;BME280;52177;55.968;37.498;2023-05-03T02:34:56;99738.72;;;10.11;41.87
65546;BME280;52177;55.968;37.498;2023-05-03T02:35:27;99757.38;;;10.11;41.93
65546;BME280;52177;55.968;37.498;2023-05-03T02:35:57;99752.22;;;10.10;41.84
65546;BME280;52177;55.968;37.498;2023-05-03T02:36:28;99745.19;;;10.09;41.83
65546;BME280;52177;55.968;37.498;2023-05-03T02:36:58;99749.69;;;10.08;41.95
65546;BME280;52177;55.968;37.498;2023-05-03T02:37:29;99743.91;;;10.05;42.06
65546;BME280;52177;55.968;37.498;2023-05-03T02:37:59;99744.56;;;10.07;42.05
65546;BME280;52177;55.968;37.498;2023-05-03T02:38:30;99748.22;;;10.06;42.21
65546;BME280;52177;55.968;37.498;2023-05-03T02:39:00;99752.72;;;10.05;42.16
65546;BME280;52177;55.968;37.498;2023-05-03T02:39:30;99747.22;;;10.07;42.01
65546;BME280;52177;55.968;37.498;2023-05-03T02:40:01;99745.72;;;10.04;42.26
65546;BME280;52177;55.968;37.498;2023-05-03T02:40:31;99745.56;;;10.06;42.25
65546;BME280;52177;55.968;37.498;2023-05-03T02:41:01;99744.56;;;10.07;42.13
65546;BME280;52177;55.968;37.498;2023-05-03T02:41:32;99746.38;;;10.06;42.34
65546;BME280;52177;55.968;37.498;2023-05-03T02:42:02;99751.53;;;10.08;42.14
65546;BME280;52177;55.968;37.498;2023-05-03T02:42:32;99745.19;;;10.09;42.28
65546;BME280;52177;55.968;37.498;2023-05-03T02:43:03;99748.88;;;10.08;42.21
65546;BME280;52177;55.968;37.498;2023-05-03T02:43:34;99746.06;;;10.09;42.18
65546;BME280;52177;55.968;37.498;2023-05-03T02:44:04;99745.03;;;10.10;42.12
65546;BME280;52177;55.968;37.498;2023-05-03T02:44:35;99748.72;;;10.09;42.15
65546;BME280;52177;55.968;37.498;2023-05-03T02:45:05;99737.41;;;10.07;42.41
65546;BME280;52177;55.968;37.498;2023-05-03T02:45:36;99750.88;;;10.06;42.34
65546;BME280;52177;55.968;37.498;2023-05-03T02:46:06;99748.22;;;10.06;42.38
65546;BME280;52177;55.968;37.498;2023-05-03T02:46:37;99737.72;;;10.04;42.50
65546;BME280;52177;55.968;37.498;2023-05-03T02:47:08;99743.06;;;10.04;42.62
65546;BME280;52177;55.968;37.498;2023-05-03T02:47:38;99742.22;;;10.04;42.38
65546;BME280;52177;55.968;37.498;2023-05-03T02:48:09;99752.06;;;10.03;42.36
65546;BME280;52177;55.968;37.498;2023-05-03T02:48:40;99746.72;;;10.03;42.42
65546;BME280;52177;55.968;37.498;2023-05-03T02:49:10;99741.56;;;10.02;42.27
65546;BME280;52177;55.968;37.498;2023-05-03T02:49:40;99740.94;;;10.00;42.49
65546;BME280;52177;55.968;37.498;2023-05-03T02:50:11;99754.06;;;10.01;42.46
65546;BME280;52177;55.968;37.498;2023-05-03T02:50:41;99743.41;;;10.01;42.42
65546;BME280;52177;55.968;37.498;2023-05-03T02:51:11;99749.56;;;10.02;42.62
65546;BME280;52177;55.968;37.498;2023-05-03T02:51:42;99742.41;;;10.02;42.52
65546;BME280;52177;55.968;37.498;2023-05-03T02:52:12;99745.09;;;10.02;42.68
65546;BME280;52177;55.968;37.498;2023-05-03T02:52:42;99749.25;;;10.05;42.46